• Join FlightAware (Why Join?)
  • Login
  • US Flag 
05:26AM EDT


 

Airport Tracker/Info


-or-


 

Live Flight TrackerFlight Track Log ✈ EJA929 ✈ 13-Jun-2013 ✈ KBJC - KBFI

Flight Track Log - Related Links

Times and Time Zones

All times are in EDT time to prevent confusion due to time zone crossing. See the EJA929 flight status page for this flight to view local times or setup timezone preferences in your user account.

Time Position Orientation Groundspeed Altitude Reporting Facility
EDT Latitude Longitude Course Direction KTS MPH feet Rate Location/Type
10:18PM 39.9500 -105.1667 342° North 224 258 7,800  Level Denver TRACON
10:19PM 40.0167 -105.1333 21° North 276 318 11,100 2,040 Climbing Denver TRACON
10:20PM 40.1167 -105.0667 27° Northeast 381 438 11,900 360 Climbing Denver TRACON
10:21PM 40.1975 -104.9925 35° Northeast 419 482 11,900 1,980 Level Denver Center
10:22PM 40.2969 -104.9253 27° Northeast 362 417 15,900 2,520 Climbing Denver Center
10:23PM 40.5920 -105.3966 342° North  Level FlightAware Approximate
10:23PM 40.3969 -104.9147 North 361 415 17,200  Level Denver Center
10:24PM 40.5153 -104.8958 North 399 459 18,900 1,620 Climbing Denver Center
10:25PM 40.6278 -104.8792 North 406 467 20,600 1,620 Climbing Denver Center
10:26PM 40.7675 -104.8539 North 413 475 22,600 1,560 Climbing Denver Center
10:27PM 40.8878 -104.8375 North 435 501 24,200 1,560 Climbing Denver Center
10:28PM 41.0131 -104.8208 North 449 517 25,900 840 Climbing Denver Center
10:29PM 41.1575 -104.8306 357° North 476 548 26,000 60 Climbing Denver Center
10:30PM 41.2489 -104.9406 318° Northwest 471 542 26,100 1,560 Climbing Denver Center
10:31PM 41.3133 -105.1019 298° West 447 514 29,600 2,160 Climbing Denver Center
10:32PM 41.3756 -105.2558 298° West 429 494 31,000 1,560 Climbing Denver Center
10:34PM 41.4414 -105.4200 298° West 440 506 32,900 1,740 Climbing Denver Center
10:35PM 41.4978 -105.5633 298° West 451 519 34,700 2,040 Climbing Denver Center
10:36PM 41.5631 -105.7317 297° West 455 524 37,200 1,560 Climbing Denver Center
10:37PM 41.6203 -105.8744 298° West 454 522 38,000 360 Climbing Denver Center
10:38PM 41.6897 -106.0486 298° West 470 541 38,000  Level Denver Center
10:39PM 41.7475 -106.1969 298° West 469 540 38,000  Level Denver Center
10:40PM 41.8072 -106.3511 298° West 479 551 38,000  Level Denver Center
10:41PM 41.8769 -106.5303 298° West 487 560 38,000  Level Denver Center
10:42PM 41.9347 -106.6769 298° West 473 544 38,000  Level Denver Center
10:43PM 41.9989 -106.8464 297° West 459 528 38,000  Level Denver Center
10:44PM 42.0531 -106.9906 297° West 456 525 38,000  Level Denver Center
10:45PM 42.1150 -107.1572 297° West 447 514 38,000  Level Denver Center
10:46PM 42.1694 -107.3017 297° West 450 518 38,000  Level Denver Center
10:47PM 42.2314 -107.4672 297° West 445 512 38,000  Level Denver Center
10:48PM 42.2825 -107.6081 296° West 439 505 38,000  Level Denver Center
10:49PM 42.3458 -107.7758 297° West 449 517 38,000  Level Denver Center
10:50PM 42.3981 -107.9194 296° West 448 516 38,000  Level Denver Center
10:51PM 42.4678 -108.1125 296° West 447 514 38,000  Level Salt Lake Center
10:52PM 42.5211 -108.2575 297° West 451 519 38,000  Level Salt Lake Center
10:53PM 42.5744 -108.4047 296° West 454 522 38,000  Level Salt Lake Center
10:54PM 42.6347 -108.5744 296° West 452 520 38,000  Level Salt Lake Center
10:55PM 42.6875 -108.7214 296° West 454 522 38,000  Level Salt Lake Center
10:56PM 42.7475 -108.8928 296° West 452 520 38,000  Level Salt Lake Center
10:57PM 42.8000 -109.0411 296° West 455 524 38,000  Level Salt Lake Center
10:58PM 42.8611 -109.2156 296° West 457 526 38,000  Level Salt Lake Center
10:59PM 42.9131 -109.3644 296° West 456 525 38,000  Level Salt Lake Center
11:00PM 42.9700 -109.5303 295° West 453 521 38,000  Level Salt Lake Center
11:01PM 43.0225 -109.6797 296° West 454 522 38,000  Level Salt Lake Center
11:02PM 43.0739 -109.8306 295° West 456 525 38,000  Level Salt Lake Center
11:03PM 43.1356 -110.0119 295° West 455 524 38,000  Level Salt Lake Center
11:05PM 43.1867 -110.1644 295° West 459 528 38,000  Level Salt Lake Center
11:06PM 43.2447 -110.3378 295° West 453 521 38,000  Level Salt Lake Center
11:07PM 43.2956 -110.4864 295° West 453 521 38,000  Level Salt Lake Center
11:08PM 43.3478 -110.6406 295° West 456 525 38,000  Level Salt Lake Center
11:09PM 43.4069 -110.8172 295° West 455 524 38,000  Level Salt Lake Center
11:10PM 43.4564 -110.9717 294° West 460 529 38,000  Level Salt Lake Center
11:11PM 43.5061 -111.1217 295° West 452 520 38,000 780 Level Salt Lake Center
11:12PM 43.5633 -111.2975 294° West 448 516 39,700 960 Climbing Salt Lake Center
11:13PM 43.6122 -111.4481 294° West 448 516 40,000 120 Climbing Salt Lake Center
11:14PM 43.6717 -111.6311 294° West 466 536 40,000  Level Salt Lake Center
11:15PM 43.7219 -111.7925 293° West 474 545 40,000  Level Salt Lake Center
11:16PM 43.7719 -111.9478 294° West 464 534 40,000  Level Salt Lake Center
11:17PM 43.8308 -112.1333 294° West 466 536 40,000  Level Salt Lake Center
11:18PM 43.8800 -112.2914 293° West 468 539 40,000  Level Salt Lake Center
11:19PM 43.9289 -112.4497 293° West 467 537 40,000  Level Salt Lake Center
11:20PM 43.9856 -112.6356 293° West 468 539 40,000  Level Salt Lake Center
11:21PM 44.0344 -112.7950 293° West 468 539 40,000  Level Salt Lake Center
11:22PM 44.0906 -112.9819 293° West 468 539 40,000  Level Salt Lake Center
11:23PM 44.1406 -113.1425 294° West 469 540 40,000  Level Salt Lake Center
11:24PM 44.1881 -113.3033 292° West 470 541 40,000  Level Salt Lake Center
11:25PM 44.2442 -113.4908 293° West 470 541 40,000  Level Salt Lake Center
11:26PM 44.2919 -113.6497 293° West 467 537 40,000  Level Salt Lake Center
11:27PM 44.3481 -113.8358 293° West 466 536 40,000  Level Salt Lake Center
11:28PM 44.3939 -113.9961 292° West 466 536 40,000  Level Salt Lake Center
11:29PM 44.4397 -114.1575 292° West 467 537 40,000  Level Salt Lake Center
11:30PM 44.4956 -114.3444 293° West 467 537 40,000  Level Salt Lake Center
11:31PM 44.5422 -114.5050 292° West 466 536 40,000  Level Salt Lake Center
11:32PM 44.5942 -114.6894 292° West 460 529 40,000  Level Salt Lake Center
11:33PM 44.6403 -114.8486 292° West 461 531 40,000  Level Salt Lake Center
11:34PM 44.6853 -115.0092 292° West 463 533 40,000  Level Salt Lake Center
11:35PM 44.7372 -115.1972 291° West 464 534 40,000  Level Salt Lake Center
11:36PM 44.7831 -115.3589 292° West 466 536 40,000  Level Salt Lake Center
11:37PM 44.8344 -115.5500 291° West 470 541 40,000  Level Salt Lake Center
11:38PM 44.8797 -115.7119 292° West 468 539 40,000  Level Salt Lake Center
11:39PM 44.9383 -115.8692 298° West 474 545 40,000  Level Salt Lake Center
11:40PM 45.0086 -116.0511 299° West 475 547 40,000  Level Salt Lake Center
11:41PM 45.0692 -116.2092 299° West 478 550 40,000  Level Salt Lake Center
11:42PM 45.1392 -116.3917 299° West 476 548 40,000  Level Salt Lake Center
11:43PM 45.1986 -116.5489 298° West 475 547 40,000  Level Salt Lake Center
11:44PM 45.2681 -116.7331 298° West 476 548 40,000  Level Salt Lake Center
11:45PM 45.3267 -116.8928 298° West 477 549 40,000  Level Salt Lake Center
11:46PM 45.3953 -117.0778 298° West 474 545 40,000  Level Seattle Center
11:47PM 45.4547 -117.2383 298° West 478 550 40,000  Level Seattle Center
11:49PM 45.5158 -117.4056 298° West 479 551 40,000  Level Seattle Center
11:50PM 45.5772 -117.5731 298° West 477 549 40,000  Level Seattle Center
11:51PM 45.6383 -117.7408 298° West 479 551 40,000  Level Seattle Center
11:52PM 45.7011 -117.9106 298° West 477 549 40,000  Level Seattle Center
11:53PM 45.7603 -118.0783 297° West 474 545 40,000  Level Seattle Center
11:54PM 45.8197 -118.2461 297° West 473 544 40,000  Level Seattle Center
11:55PM 45.8792 -118.4131 297° West 470 541 40,000  Level Seattle Center
11:56PM 45.9358 -118.5764 297° West 471 542 40,000  Level Seattle Center
11:57PM 45.9928 -118.7403 297° West 466 536 40,000  Level Seattle Center
11:58PM 46.0589 -118.9272 297° West 443 510 40,000  Level Seattle Center
11:59PM 46.1122 -119.0831 296° West 438 504 40,000  Level Seattle Center
12:00AM 46.1644 -119.2361 296° West 431 496 40,000  Level Seattle Center
12:01AM 46.2175 -119.3911 296° West 432 497 40,000  Level Seattle Center
12:02AM 46.2706 -119.5475 296° West 435 501 40,000 -180 Level Seattle Center
12:03AM 46.3253 -119.7094 296° West 445 512 39,700 -1,380 Descending Seattle Center
12:04AM 46.3814 -119.8747 296° West 457 526 37,300 -2,400 Descending Seattle Center
12:05AM 46.4361 -120.0425 295° West 461 531 34,900 -2,340 Descending Seattle Center
12:06AM 46.4897 -120.2039 296° West 451 519 32,600 -2,340 Descending Seattle Center
12:07AM 46.5433 -120.3675 296° West 451 519 30,200 -2,400 Descending Seattle Center
12:08AM 46.6044 -120.5233 300° West 446 513 27,800 -2,280 Descending Seattle Center
12:09AM 46.6714 -120.6611 305° West 422 486 25,600 -2,460 Descending Seattle Center
12:10AM 46.7358 -120.7969 305° West 413 475 22,800 -2,640 Descending Seattle Center
12:11AM 46.8100 -120.9517 305° West 388 447 20,300 -2,400 Descending Seattle Center
12:12AM 46.8681 -121.0767 304° West 377 434 18,000 -2,040 Descending Seattle Center
12:13AM 46.9256 -121.1994 304° West 368 423 16,300 -1,860 Descending Seattle Center
12:14AM 46.9808 -121.3211 304° West 361 415 14,300 -2,040 Descending Seattle Center
12:15AM 47.0372 -121.4367 306° West 351 404 12,400 -1,680 Descending Seattle Center
12:16AM 47.0928 -121.5583 304° West 335 386 11,000 -1,140 Descending Seattle Center
12:16AM 47.1081 -121.5864 309° West 307 353 10,800 -1,320 Descending Seattle Center
12:17AM 47.1375 -121.6506 304° West 280 322 9,700 -1,620 Descending Seattle Center
12:17AM 47.1528 -121.6886 301° West 262 302 9,200 -1,440 Descending Seattle Center
12:18AM 47.1761 -121.7436 302° West 268 308 8,300 -1,500 Descending Seattle Center
12:18AM 47.1878 -121.7803 295° West 260 299 7,700 -1,620 Descending Seattle Center
12:19AM 47.2075 -121.8397 296° West 262 302 6,700 -1,680 Descending Seattle Center
12:19AM 47.2192 -121.8672 302° West 261 300 6,200 -600 Descending Seattle Center
12:20AM 47.2489 -121.9331 304° West 252 290 6,100 -540 Descending Seattle Center
12:21AM 47.2883 -122.0158 305° West 249 287 5,300 -900 Descending Seattle Center
12:21AM 47.2997 -122.0414 303° West 247 284 4,900 -1,500 Descending Seattle Center
12:22AM 47.3272 -122.0961 307° West 243 280 3,800 -1,020 Descending Seattle Center
12:23AM 47.3675 -122.1592 313° West 211 243 3,200 -720 Descending Seattle Center
12:23AM 47.3778 -122.1717 321° Northwest 198 228 2,900 -840 Descending Seattle Center
12:24AM 47.4094 -122.2003 329° Northwest 182 209 2,400 -780 Descending Seattle Center
12:25AM 47.4553 -122.2403 329° Northwest 158 182 1,500 -780 Descending Seattle Center
12:26AM 47.4894 -122.2706 329° Northwest 125 144 800 -720 Descending Seattle Center
12:27AM 47.5153 -122.2903 333° Northwest 128 147 200 -420 Descending Seattle Center
12:28AM 47.5444 -122.3147 331° Northwest 127 146 100 -120 Descending Seattle Center